sensor_id;sensor_type;location;lat;lon;timestamp;P1;durP1;ratioP1;P2;durP2;ratioP2
2225;SDS011;1119;48.288;8.726;2023-07-24T00:00:08;11.30;;;9.60;;
2225;SDS011;1119;48.288;8.726;2023-07-24T00:02:37;11.97;;;9.10;;
2225;SDS011;1119;48.288;8.726;2023-07-24T00:05:04;11.33;;;8.87;;
2225;SDS011;1119;48.288;8.726;2023-07-24T00:07:32;11.10;;;10.00;;
2225;SDS011;1119;48.288;8.726;2023-07-24T00:10:00;11.37;;;10.37;;
2225;SDS011;1119;48.288;8.726;2023-07-24T00:12:27;11.50;;;9.50;;
2225;SDS011;1119;48.288;8.726;2023-07-24T00:14:54;10.33;;;9.27;;
2225;SDS011;1119;48.288;8.726;2023-07-24T00:17:24;10.63;;;9.63;;
2225;SDS011;1119;48.288;8.726;2023-07-24T00:19:51;10.93;;;9.37;;
2225;SDS011;1119;48.288;8.726;2023-07-24T00:22:18;11.00;;;9.17;;
2225;SDS011;1119;48.288;8.726;2023-07-24T00:24:46;10.40;;;9.37;;
2225;SDS011;1119;48.288;8.726;2023-07-24T00:27:13;12.17;;;11.07;;
2225;SDS011;1119;48.288;8.726;2023-07-24T00:29:40;10.40;;;9.50;;
2225;SDS011;1119;48.288;8.726;2023-07-24T00:32:08;9.63;;;8.73;;
2225;SDS011;1119;48.288;8.726;2023-07-24T00:34:37;10.73;;;9.73;;
2225;SDS011;1119;48.288;8.726;2023-07-24T00:37:04;9.03;;;8.23;;
2225;SDS011;1119;48.288;8.726;2023-07-24T00:39:32;11.10;;;9.47;;
2225;SDS011;1119;48.288;8.726;2023-07-24T00:41:59;9.90;;;9.00;;
2225;SDS011;1119;48.288;8.726;2023-07-24T00:44:27;11.00;;;9.90;;
2225;SDS011;1119;48.288;8.726;2023-07-24T00:46:54;10.00;;;8.60;;
2225;SDS011;1119;48.288;8.726;2023-07-24T00:49:22;11.50;;;8.53;;
2225;SDS011;1119;48.288;8.726;2023-07-24T00:51:51;10.63;;;9.60;;
2225;SDS011;1119;48.288;8.726;2023-07-24T00:54:19;11.00;;;10.00;;
2225;SDS011;1119;48.288;8.726;2023-07-24T00:56:50;10.67;;;9.60;;
2225;SDS011;1119;48.288;8.726;2023-07-24T00:59:17;9.70;;;8.60;;
2225;SDS011;1119;48.288;8.726;2023-07-24T01:01:45;9.70;;;8.67;;
2225;SDS011;1119;48.288;8.726;2023-07-24T01:04:14;9.33;;;8.53;;
2225;SDS011;1119;48.288;8.726;2023-07-24T01:06:41;8.23;;;7.57;;
2225;SDS011;1119;48.288;8.726;2023-07-24T01:09:10;9.90;;;8.73;;
2225;SDS011;1119;48.288;8.726;2023-07-24T01:11:38;9.90;;;8.90;;
2225;SDS011;1119;48.288;8.726;2023-07-24T01:14:12;9.17;;;8.47;;
2225;SDS011;1119;48.288;8.726;2023-07-24T01:16:47;10.60;;;9.60;;
2225;SDS011;1119;48.288;8.726;2023-07-24T01:19:16;9.63;;;8.30;;
2225;SDS011;1119;48.288;8.726;2023-07-24T01:22:01;9.40;;;8.50;;
2225;SDS011;1119;48.288;8.726;2023-07-24T01:24:57;9.03;;;8.13;;
2225;SDS011;1119;48.288;8.726;2023-07-24T01:27:33;10.40;;;9.53;;
2225;SDS011;1119;48.288;8.726;2023-07-24T01:30:00;8.87;;;8.03;;
2225;SDS011;1119;48.288;8.726;2023-07-24T01:32:28;11.87;;;8.80;;
2225;SDS011;1119;48.288;8.726;2023-07-24T01:34:55;10.20;;;9.07;;
2225;SDS011;1119;48.288;8.726;2023-07-24T01:37:22;10.73;;;9.60;;
2225;SDS011;1119;48.288;8.726;2023-07-24T01:39:52;8.57;;;7.77;;
2225;SDS011;1119;48.288;8.726;2023-07-24T01:42:20;9.07;;;8.23;;
2225;SDS011;1119;48.288;8.726;2023-07-24T01:44:52;9.03;;;8.23;;
2225;SDS011;1119;48.288;8.726;2023-07-24T01:47:19;10.47;;;9.10;;
2225;SDS011;1119;48.288;8.726;2023-07-24T01:49:47;11.33;;;10.23;;
2225;SDS011;1119;48.288;8.726;2023-07-24T01:52:15;9.30;;;8.27;;
2225;SDS011;1119;48.288;8.726;2023-07-24T01:54:42;9.97;;;9.07;;
2225;SDS011;1119;48.288;8.726;2023-07-24T01:57:09;8.93;;;8.03;;
2225;SDS011;1119;48.288;8.726;2023-07-24T01:59:37;9.80;;;8.70;;
2225;SDS011;1119;48.288;8.726;2023-07-24T02:02:05;10.53;;;8.90;;
2225;SDS011;1119;48.288;8.726;2023-07-24T02:04:33;9.40;;;8.50;;
2225;SDS011;1119;48.288;8.726;2023-07-24T02:07:03;11.43;;;8.90;;
2225;SDS011;1119;48.288;8.726;2023-07-24T02:09:30;9.80;;;9.00;;
2225;SDS011;1119;48.288;8.726;2023-07-24T02:11:58;9.27;;;8.40;;
2225;SDS011;1119;48.288;8.726;2023-07-24T02:14:27;10.40;;;8.27;;
2225;SDS011;1119;48.288;8.726;2023-07-24T02:16:54;10.00;;;9.20;;
2225;SDS011;1119;48.288;8.726;2023-07-24T02:19:23;10.00;;;8.87;;
2225;SDS011;1119;48.288;8.726;2023-07-24T02:21:50;9.13;;;8.23;;
2225;SDS011;1119;48.288;8.726;2023-07-24T02:24:17;10.67;;;9.57;;
2225;SDS011;1119;48.288;8.726;2023-07-24T02:26:45;9.00;;;8.20;;
2225;SDS011;1119;48.288;8.726;2023-07-24T02:29:12;8.90;;;8.10;;
2225;SDS011;1119;48.288;8.726;2023-07-24T02:31:40;9.60;;;8.63;;
2225;SDS011;1119;48.288;8.726;2023-07-24T02:34:08;10.53;;;9.63;;
2225;SDS011;1119;48.288;8.726;2023-07-24T02:36:36;10.13;;;9.13;;
2225;SDS011;1119;48.288;8.726;2023-07-24T02:39:04;9.13;;;8.23;;
2225;SDS011;1119;48.288;8.726;2023-07-24T02:41:32;9.13;;;8.23;;
2225;SDS011;1119;48.288;8.726;2023-07-24T02:43:59;8.97;;;8.23;;
2225;SDS011;1119;48.288;8.726;2023-07-24T02:46:26;8.63;;;7.87;;
2225;SDS011;1119;48.288;8.726;2023-07-24T02:48:57;9.13;;;8.23;;
2225;SDS011;1119;48.288;8.726;2023-07-24T02:51:24;10.13;;;9.03;;
2225;SDS011;1119;48.288;8.726;2023-07-24T02:53:53;9.00;;;8.20;;
2225;SDS011;1119;48.288;8.726;2023-07-24T02:56:21;10.00;;;9.00;;
2225;SDS011;1119;48.288;8.726;2023-07-24T02:58:48;9.40;;;8.57;;
2225;SDS011;1119;48.288;8.726;2023-07-24T03:01:16;8.63;;;7.80;;
2225;SDS011;1119;48.288;8.726;2023-07-24T03:03:43;9.17;;;8.23;;
2225;SDS011;1119;48.288;8.726;2023-07-24T03:06:11;9.63;;;8.83;;
2225;SDS011;1119;48.288;8.726;2023-07-24T03:08:38;9.57;;;7.83;;
2225;SDS011;1119;48.288;8.726;2023-07-24T03:11:07;10.07;;;9.07;;
2225;SDS011;1119;48.288;8.726;2023-07-24T03:13:34;9.67;;;8.77;;
2225;SDS011;1119;48.288;8.726;2023-07-24T03:16:01;9.40;;;8.60;;
2225;SDS011;1119;48.288;8.726;2023-07-24T03:18:29;9.70;;;8.90;;
2225;SDS011;1119;48.288;8.726;2023-07-24T03:20:57;10.63;;;9.53;;
2225;SDS011;1119;48.288;8.726;2023-07-24T03:23:24;10.03;;;9.00;;
2225;SDS011;1119;48.288;8.726;2023-07-24T03:25:52;9.53;;;8.67;;
2225;SDS011;1119;48.288;8.726;2023-07-24T03:28:21;10.43;;;8.53;;
2225;SDS011;1119;48.288;8.726;2023-07-24T03:30:49;11.27;;;9.50;;
2225;SDS011;1119;48.288;8.726;2023-07-24T03:33:16;8.63;;;7.80;;
2225;SDS011;1119;48.288;8.726;2023-07-24T03:35:43;10.07;;;9.17;;
2225;SDS011;1119;48.288;8.726;2023-07-24T03:38:11;10.03;;;9.33;;
2225;SDS011;1119;48.288;8.726;2023-07-24T03:40:38;9.30;;;8.40;;
2225;SDS011;1119;48.288;8.726;2023-07-24T03:43:06;9.97;;;8.43;;
2225;SDS011;1119;48.288;8.726;2023-07-24T03:45:34;10.90;;;9.07;;
2225;SDS011;1119;48.288;8.726;2023-07-24T03:48:02;9.00;;;8.20;;
2225;SDS011;1119;48.288;8.726;2023-07-24T03:50:30;9.23;;;7.70;;
2225;SDS011;1119;48.288;8.726;2023-07-24T03:52:58;9.30;;;8.27;;
2225;SDS011;1119;48.288;8.726;2023-07-24T03:55:25;9.30;;;8.40;;
2225;SDS011;1119;48.288;8.726;2023-07-24T03:57:52;9.20;;;8.30;;
2225;SDS011;1119;48.288;8.726;2023-07-24T04:00:19;10.40;;;8.40;;
2225;SDS011;1119;48.288;8.726;2023-07-24T04:02:48;10.80;;;9.70;;
2225;SDS011;1119;48.288;8.726;2023-07-24T04:05:15;13.83;;;9.20;;
2225;SDS011;1119;48.288;8.726;2023-07-24T04:07:43;9.47;;;8.57;;
2225;SDS011;1119;48.288;8.726;2023-07-24T04:10:10;8.77;;;7.87;;
2225;SDS011;1119;48.288;8.726;2023-07-24T04:12:38;8.13;;;7.43;;
2225;SDS011;1119;48.288;8.726;2023-07-24T04:15:05;8.63;;;7.83;;
2225;SDS011;1119;48.288;8.726;2023-07-24T04:17:34;13.90;;;10.47;;
2225;SDS011;1119;48.288;8.726;2023-07-24T04:20:02;10.97;;;9.87;;
2225;SDS011;1119;48.288;8.726;2023-07-24T04:22:31;9.00;;;8.10;;
2225;SDS011;1119;48.288;8.726;2023-07-24T04:24:58;7.30;;;6.60;;
2225;SDS011;1119;48.288;8.726;2023-07-24T04:27:26;8.97;;;8.27;;
2225;SDS011;1119;48.288;8.726;2023-07-24T04:29:53;10.47;;;8.00;;
2225;SDS011;1119;48.288;8.726;2023-07-24T04:32:21;7.90;;;7.17;;
2225;SDS011;1119;48.288;8.726;2023-07-24T04:34:48;10.97;;;8.43;;
2225;SDS011;1119;48.288;8.726;2023-07-24T04:37:17;10.43;;;9.30;;
2225;SDS011;1119;48.288;8.726;2023-07-24T04:39:44;9.60;;;8.67;;
2225;SDS011;1119;48.288;8.726;2023-07-24T04:42:11;11.27;;;8.90;;
2225;SDS011;1119;48.288;8.726;2023-07-24T04:44:39;10.70;;;9.10;;
2225;SDS011;1119;48.288;8.726;2023-07-24T04:47:06;9.30;;;8.20;;
2225;SDS011;1119;48.288;8.726;2023-07-24T04:49:33;10.77;;;9.70;;
2225;SDS011;1119;48.288;8.726;2023-07-24T04:52:01;10.90;;;9.83;;
2225;SDS011;1119;48.288;8.726;2023-07-24T04:54:30;11.67;;;10.33;;
2225;SDS011;1119;48.288;8.726;2023-07-24T04:56:57;9.73;;;8.80;;
2225;SDS011;1119;48.288;8.726;2023-07-24T04:59:24;8.77;;;7.93;;
2225;SDS011;1119;48.288;8.726;2023-07-24T05:01:51;8.77;;;7.87;;
2225;SDS011;1119;48.288;8.726;2023-07-24T05:04:19;10.13;;;9.17;;
2225;SDS011;1119;48.288;8.726;2023-07-24T05:06:46;11.80;;;8.80;;
2225;SDS011;1119;48.288;8.726;2023-07-24T05:09:13;10.60;;;8.63;;
2225;SDS011;1119;48.288;8.726;2023-07-24T05:11:42;9.17;;;7.27;;
2225;SDS011;1119;48.288;8.726;2023-07-24T05:14:10;10.63;;;8.43;;
2225;SDS011;1119;48.288;8.726;2023-07-24T05:16:37;10.03;;;8.40;;
2225;SDS011;1119;48.288;8.726;2023-07-24T05:19:05;9.20;;;8.40;;
2225;SDS011;1119;48.288;8.726;2023-07-24T05:21:32;9.67;;;8.80;;
2225;SDS011;1119;48.288;8.726;2023-07-24T05:23:59;10.40;;;9.17;;
2225;SDS011;1119;48.288;8.726;2023-07-24T05:26:27;10.40;;;8.70;;
2225;SDS011;1119;48.288;8.726;2023-07-24T05:28:55;11.10;;;9.80;;
2225;SDS011;1119;48.288;8.726;2023-07-24T05:31:23;9.70;;;8.00;;
2225;SDS011;1119;48.288;8.726;2023-07-24T05:33:50;11.50;;;9.17;;
2225;SDS011;1119;48.288;8.726;2023-07-24T05:36:17;8.63;;;7.90;;
2225;SDS011;1119;48.288;8.726;2023-07-24T05:38:44;9.00;;;8.23;;
2225;SDS011;1119;48.288;8.726;2023-07-24T05:41:12;9.50;;;8.57;;
2225;SDS011;1119;48.288;8.726;2023-07-24T05:43:39;9.17;;;7.40;;
2225;SDS011;1119;48.288;8.726;2023-07-24T05:46:07;10.80;;;9.70;;
2225;SDS011;1119;48.288;8.726;2023-07-24T05:48:35;14.73;;;8.80;;
2225;SDS011;1119;48.288;8.726;2023-07-24T05:51:02;11.33;;;10.30;;
2225;SDS011;1119;48.288;8.726;2023-07-24T05:53:29;10.07;;;8.77;;
2225;SDS011;1119;48.288;8.726;2023-07-24T05:55:57;10.20;;;9.30;;
2225;SDS011;1119;48.288;8.726;2023-07-24T05:58:26;11.53;;;9.10;;
2225;SDS011;1119;48.288;8.726;2023-07-24T06:00:53;10.10;;;9.07;;
2225;SDS011;1119;48.288;8.726;2023-07-24T06:03:23;10.20;;;9.20;;
2225;SDS011;1119;48.288;8.726;2023-07-24T06:05:51;11.67;;;9.03;;
2225;SDS011;1119;48.288;8.726;2023-07-24T06:08:19;9.87;;;8.97;;
2225;SDS011;1119;48.288;8.726;2023-07-24T06:10:46;9.73;;;8.77;;
2225;SDS011;1119;48.288;8.726;2023-07-24T06:13:14;10.13;;;9.10;;
2225;SDS011;1119;48.288;8.726;2023-07-24T06:15:42;11.27;;;10.27;;
2225;SDS011;1119;48.288;8.726;2023-07-24T06:18:09;10.10;;;9.30;;
2225;SDS011;1119;48.288;8.726;2023-07-24T06:20:38;10.93;;;9.70;;
2225;SDS011;1119;48.288;8.726;2023-07-24T06:23:06;10.23;;;9.43;;
2225;SDS011;1119;48.288;8.726;2023-07-24T06:25:33;10.13;;;9.03;;
2225;SDS011;1119;48.288;8.726;2023-07-24T06:28:00;10.13;;;9.00;;
2225;SDS011;1119;48.288;8.726;2023-07-24T06:30:28;10.90;;;9.80;;
2225;SDS011;1119;48.288;8.726;2023-07-24T06:32:55;11.00;;;8.47;;
2225;SDS011;1119;48.288;8.726;2023-07-24T06:35:22;9.87;;;8.87;;
2225;SDS011;1119;48.288;8.726;2023-07-24T06:37:51;9.23;;;8.53;;
2225;SDS011;1119;48.288;8.726;2023-07-24T06:40:18;9.23;;;8.33;;
2225;SDS011;1119;48.288;8.726;2023-07-24T06:42:46;12.70;;;8.53;;
2225;SDS011;1119;48.288;8.726;2023-07-24T06:45:13;9.03;;;8.23;;
2225;SDS011;1119;48.288;8.726;2023-07-24T06:47:40;8.23;;;7.50;;
2225;SDS011;1119;48.288;8.726;2023-07-24T06:50:08;8.40;;;7.43;;
2225;SDS011;1119;48.288;8.726;2023-07-24T06:52:35;9.00;;;8.30;;
2225;SDS011;1119;48.288;8.726;2023-07-24T06:55:05;10.27;;;9.27;;
2225;SDS011;1119;48.288;8.726;2023-07-24T06:57:33;8.90;;;8.13;;
2225;SDS011;1119;48.288;8.726;2023-07-24T07:00:00;8.63;;;7.80;;
2225;SDS011;1119;48.288;8.726;2023-07-24T07:02:28;7.47;;;6.87;;
2225;SDS011;1119;48.288;8.726;2023-07-24T07:04:56;8.70;;;6.83;;
2225;SDS011;1119;48.288;8.726;2023-07-24T07:07:23;10.13;;;9.13;;
2225;SDS011;1119;48.288;8.726;2023-07-24T07:09:53;10.20;;;9.10;;
2225;SDS011;1119;48.288;8.726;2023-07-24T07:12:48;9.77;;;8.77;;
2225;SDS011;1119;48.288;8.726;2023-07-24T07:15:16;8.90;;;8.07;;
2225;SDS011;1119;48.288;8.726;2023-07-24T07:17:43;9.57;;;8.80;;
2225;SDS011;1119;48.288;8.726;2023-07-24T07:20:10;10.30;;;9.47;;
2225;SDS011;1119;48.288;8.726;2023-07-24T07:22:38;9.30;;;8.27;;
2225;SDS011;1119;48.288;8.726;2023-07-24T07:25:05;8.33;;;6.90;;
2225;SDS011;1119;48.288;8.726;2023-07-24T07:27:33;8.47;;;7.63;;
2225;SDS011;1119;48.288;8.726;2023-07-24T07:30:02;8.13;;;7.43;;
2225;SDS011;1119;48.288;8.726;2023-07-24T07:32:30;8.37;;;7.67;;
2225;SDS011;1119;48.288;8.726;2023-07-24T07:34:58;9.03;;;8.23;;
2225;SDS011;1119;48.288;8.726;2023-07-24T07:37:26;8.77;;;7.97;;
2225;SDS011;1119;48.288;8.726;2023-07-24T07:39:53;8.23;;;7.43;;
2225;SDS011;1119;48.288;8.726;2023-07-24T07:42:20;8.23;;;7.53;;
2225;SDS011;1119;48.288;8.726;2023-07-24T07:44:48;7.60;;;7.10;;
2225;SDS011;1119;48.288;8.726;2023-07-24T07:47:16;8.90;;;8.10;;
2225;SDS011;1119;48.288;8.726;2023-07-24T07:49:44;8.80;;;8.00;;
2225;SDS011;1119;48.288;8.726;2023-07-24T07:52:11;8.83;;;8.10;;
2225;SDS011;1119;48.288;8.726;2023-07-24T07:54:45;8.70;;;7.80;;
2225;SDS011;1119;48.288;8.726;2023-07-24T07:57:13;7.77;;;6.97;;
2225;SDS011;1119;48.288;8.726;2023-07-24T07:59:42;8.03;;;6.57;;
2225;SDS011;1119;48.288;8.726;2023-07-24T08:02:09;8.23;;;6.97;;
2225;SDS011;1119;48.288;8.726;2023-07-24T08:04:37;8.33;;;7.57;;
2225;SDS011;1119;48.288;8.726;2023-07-24T08:07:05;8.07;;;7.37;;
2225;SDS011;1119;48.288;8.726;2023-07-24T08:09:32;7.80;;;7.20;;
2225;SDS011;1119;48.288;8.726;2023-07-24T08:12:01;6.33;;;5.83;;
2225;SDS011;1119;48.288;8.726;2023-07-24T08:14:29;7.70;;;7.10;;
2225;SDS011;1119;48.288;8.726;2023-07-24T08:16:57;9.47;;;8.37;;
2225;SDS011;1119;48.288;8.726;2023-07-24T08:19:27;8.40;;;7.53;;
2225;SDS011;1119;48.288;8.726;2023-07-24T08:21:56;7.33;;;6.73;;
2225;SDS011;1119;48.288;8.726;2023-07-24T08:24:23;7.80;;;6.80;;
2225;SDS011;1119;48.288;8.726;2023-07-24T08:26:51;7.23;;;6.63;;
2225;SDS011;1119;48.288;8.726;2023-07-24T08:29:18;7.17;;;6.57;;
2225;SDS011;1119;48.288;8.726;2023-07-24T08:31:46;7.80;;;7.03;;
2225;SDS011;1119;48.288;8.726;2023-07-24T08:34:13;8.00;;;7.30;;
2225;SDS011;1119;48.288;8.726;2023-07-24T08:36:40;6.93;;;6.37;;
2225;SDS011;1119;48.288;8.726;2023-07-24T08:39:09;8.53;;;7.70;;
2225;SDS011;1119;48.288;8.726;2023-07-24T08:41:36;7.60;;;7.10;;
2225;SDS011;1119;48.288;8.726;2023-07-24T08:44:04;8.70;;;6.93;;
2225;SDS011;1119;48.288;8.726;2023-07-24T08:46:34;7.50;;;7.00;;
2225;SDS011;1119;48.288;8.726;2023-07-24T08:49:04;8.57;;;7.77;;
2225;SDS011;1119;48.288;8.726;2023-07-24T08:51:32;7.83;;;7.13;;
2225;SDS011;1119;48.288;8.726;2023-07-24T08:54:00;7.97;;;6.70;;
2225;SDS011;1119;48.288;8.726;2023-07-24T08:56:30;8.07;;;7.30;;
2225;SDS011;1119;48.288;8.726;2023-07-24T08:58:58;7.13;;;6.60;;
2225;SDS011;1119;48.288;8.726;2023-07-24T09:01:25;7.73;;;6.50;;
2225;SDS011;1119;48.288;8.726;2023-07-24T09:03:53;7.07;;;6.27;;
2225;SDS011;1119;48.288;8.726;2023-07-24T09:06:20;6.30;;;5.73;;
2225;SDS011;1119;48.288;8.726;2023-07-24T09:08:48;7.53;;;6.83;;
2225;SDS011;1119;48.288;8.726;2023-07-24T09:11:15;6.80;;;6.20;;
2225;SDS011;1119;48.288;8.726;2023-07-24T09:13:43;7.17;;;6.50;;
2225;SDS011;1119;48.288;8.726;2023-07-24T09:16:20;6.17;;;5.57;;
2225;SDS011;1119;48.288;8.726;2023-07-24T09:18:48;6.83;;;6.23;;
2225;SDS011;1119;48.288;8.726;2023-07-24T09:21:26;7.10;;;6.70;;
2225;SDS011;1119;48.288;8.726;2023-07-24T09:23:55;6.43;;;5.93;;
2225;SDS011;1119;48.288;8.726;2023-07-24T09:26:22;6.77;;;6.17;;
2225;SDS011;1119;48.288;8.726;2023-07-24T09:28:54;6.73;;;6.03;;
2225;SDS011;1119;48.288;8.726;2023-07-24T09:31:21;6.50;;;5.90;;
2225;SDS011;1119;48.288;8.726;2023-07-24T09:34:00;8.27;;;7.03;;
2225;SDS011;1119;48.288;8.726;2023-07-24T09:36:36;8.70;;;6.97;;
2225;SDS011;1119;48.288;8.726;2023-07-24T09:39:04;8.57;;;7.77;;
2225;SDS011;1119;48.288;8.726;2023-07-24T09:41:35;7.47;;;6.80;;
2225;SDS011;1119;48.288;8.726;2023-07-24T09:44:04;6.57;;;6.17;;
2225;SDS011;1119;48.288;8.726;2023-07-24T09:46:32;9.13;;;7.80;;
2225;SDS011;1119;48.288;8.726;2023-07-24T09:48:59;7.63;;;7.03;;
2225;SDS011;1119;48.288;8.726;2023-07-24T09:51:28;8.67;;;7.87;;
2225;SDS011;1119;48.288;8.726;2023-07-24T09:53:58;6.97;;;6.50;;
2225;SDS011;1119;48.288;8.726;2023-07-24T09:56:33;6.93;;;6.23;;
2225;SDS011;1119;48.288;8.726;2023-07-24T09:59:02;7.77;;;7.17;;
2225;SDS011;1119;48.288;8.726;2023-07-24T10:01:32;7.77;;;7.07;;
2225;SDS011;1119;48.288;8.726;2023-07-24T10:04:00;8.40;;;6.90;;
2225;SDS011;1119;48.288;8.726;2023-07-24T10:06:28;7.60;;;6.80;;
2225;SDS011;1119;48.288;8.726;2023-07-24T10:08:57;11.60;;;8.80;;
2225;SDS011;1119;48.288;8.726;2023-07-24T10:11:25;10.60;;;9.53;;
2225;SDS011;1119;48.288;8.726;2023-07-24T10:13:53;9.70;;;8.10;;
2225;SDS011;1119;48.288;8.726;2023-07-24T10:16:22;12.63;;;9.90;;
2225;SDS011;1119;48.288;8.726;2023-07-24T10:18:50;8.00;;;7.30;;
2225;SDS011;1119;48.288;8.726;2023-07-24T10:21:17;10.77;;;9.77;;
2225;SDS011;1119;48.288;8.726;2023-07-24T10:23:45;10.17;;;9.17;;
2225;SDS011;1119;48.288;8.726;2023-07-24T10:26:12;11.70;;;8.63;;
2225;SDS011;1119;48.288;8.726;2023-07-24T10:28:42;10.70;;;9.60;;
2225;SDS011;1119;48.288;8.726;2023-07-24T10:31:18;10.17;;;7.33;;
2225;SDS011;1119;48.288;8.726;2023-07-24T10:33:49;9.87;;;9.00;;
2225;SDS011;1119;48.288;8.726;2023-07-24T10:36:18;8.33;;;7.63;;
2225;SDS011;1119;48.288;8.726;2023-07-24T10:38:51;8.33;;;7.50;;
2225;SDS011;1119;48.288;8.726;2023-07-24T10:41:21;8.20;;;7.50;;
2225;SDS011;1119;48.288;8.726;2023-07-24T10:43:49;7.47;;;6.77;;
2225;SDS011;1119;48.288;8.726;2023-07-24T10:46:18;11.97;;;7.40;;
2225;SDS011;1119;48.288;8.726;2023-07-24T10:48:48;8.03;;;6.90;;
2225;SDS011;1119;48.288;8.726;2023-07-24T10:51:17;7.97;;;7.20;;
2225;SDS011;1119;48.288;8.726;2023-07-24T10:53:45;7.90;;;7.10;;
2225;SDS011;1119;48.288;8.726;2023-07-24T10:56:14;8.10;;;7.40;;
2225;SDS011;1119;48.288;8.726;2023-07-24T10:58:43;6.80;;;6.20;;
2225;SDS011;1119;48.288;8.726;2023-07-24T11:01:10;7.87;;;7.07;;
2225;SDS011;1119;48.288;8.726;2023-07-24T11:03:39;8.67;;;7.93;;
2225;SDS011;1119;48.288;8.726;2023-07-24T11:06:13;7.20;;;6.60;;
2225;SDS011;1119;48.288;8.726;2023-07-24T11:08:42;8.60;;;7.67;;
2225;SDS011;1119;48.288;8.726;2023-07-24T11:11:17;7.27;;;6.70;;
2225;SDS011;1119;48.288;8.726;2023-07-24T11:13:45;8.80;;;7.23;;
2225;SDS011;1119;48.288;8.726;2023-07-24T11:16:12;7.93;;;7.00;;
2225;SDS011;1119;48.288;8.726;2023-07-24T11:18:45;7.30;;;6.70;;
2225;SDS011;1119;48.288;8.726;2023-07-24T11:21:15;8.70;;;7.90;;
2225;SDS011;1119;48.288;8.726;2023-07-24T11:23:46;6.67;;;6.17;;
2225;SDS011;1119;48.288;8.726;2023-07-24T11:26:15;6.90;;;6.20;;
2225;SDS011;1119;48.288;8.726;2023-07-24T11:28:46;7.23;;;6.53;;
2225;SDS011;1119;48.288;8.726;2023-07-24T11:31:13;9.00;;;7.17;;
2225;SDS011;1119;48.288;8.726;2023-07-24T11:33:44;5.87;;;5.37;;
2225;SDS011;1119;48.288;8.726;2023-07-24T11:36:12;7.17;;;6.77;;
2225;SDS011;1119;48.288;8.726;2023-07-24T11:38:44;6.10;;;5.70;;
2225;SDS011;1119;48.288;8.726;2023-07-24T11:41:11;7.03;;;6.43;;
2225;SDS011;1119;48.288;8.726;2023-07-24T11:43:45;7.13;;;6.50;;
2225;SDS011;1119;48.288;8.726;2023-07-24T11:46:21;7.97;;;5.80;;
2225;SDS011;1119;48.288;8.726;2023-07-24T11:48:51;6.20;;;5.60;;
2225;SDS011;1119;48.288;8.726;2023-07-24T11:51:20;5.67;;;5.07;;
2225;SDS011;1119;48.288;8.726;2023-07-24T11:53:49;6.73;;;6.20;;
2225;SDS011;1119;48.288;8.726;2023-07-24T11:56:17;6.80;;;6.17;;
2225;SDS011;1119;48.288;8.726;2023-07-24T11:58:47;6.30;;;5.80;;
2225;SDS011;1119;48.288;8.726;2023-07-24T12:01:14;6.30;;;5.50;;
2225;SDS011;1119;48.288;8.726;2023-07-24T12:03:42;5.97;;;5.47;;
2225;SDS011;1119;48.288;8.726;2023-07-24T12:06:14;5.90;;;5.50;;
2225;SDS011;1119;48.288;8.726;2023-07-24T12:08:43;5.90;;;5.40;;
2225;SDS011;1119;48.288;8.726;2023-07-24T12:11:15;5.77;;;5.27;;
2225;SDS011;1119;48.288;8.726;2023-07-24T12:13:43;6.83;;;6.10;;
2225;SDS011;1119;48.288;8.726;2023-07-24T12:16:11;7.50;;;7.00;;
2225;SDS011;1119;48.288;8.726;2023-07-24T12:18:38;6.07;;;5.63;;
2225;SDS011;1119;48.288;8.726;2023-07-24T12:21:05;6.20;;;5.60;;
2225;SDS011;1119;48.288;8.726;2023-07-24T12:23:33;5.63;;;4.93;;
2225;SDS011;1119;48.288;8.726;2023-07-24T12:26:01;6.83;;;6.13;;
2225;SDS011;1119;48.288;8.726;2023-07-24T12:28:29;6.47;;;5.87;;
2225;SDS011;1119;48.288;8.726;2023-07-24T12:30:56;7.77;;;6.77;;
2225;SDS011;1119;48.288;8.726;2023-07-24T12:33:24;6.03;;;5.53;;
2225;SDS011;1119;48.288;8.726;2023-07-24T12:35:51;6.73;;;6.00;;
2225;SDS011;1119;48.288;8.726;2023-07-24T12:38:19;6.07;;;5.67;;
2225;SDS011;1119;48.288;8.726;2023-07-24T12:40:46;6.30;;;5.80;;
2225;SDS011;1119;48.288;8.726;2023-07-24T12:43:15;6.73;;;6.13;;
2225;SDS011;1119;48.288;8.726;2023-07-24T12:45:43;6.10;;;5.70;;
2225;SDS011;1119;48.288;8.726;2023-07-24T12:48:10;6.90;;;6.40;;
2225;SDS011;1119;48.288;8.726;2023-07-24T12:50:37;6.60;;;5.83;;
2225;SDS011;1119;48.288;8.726;2023-07-24T12:53:05;4.73;;;4.43;;
2225;SDS011;1119;48.288;8.726;2023-07-24T12:55:32;4.83;;;4.43;;
2225;SDS011;1119;48.288;8.726;2023-07-24T12:57:59;7.33;;;5.47;;
2225;SDS011;1119;48.288;8.726;2023-07-24T13:00:29;4.97;;;4.67;;
2225;SDS011;1119;48.288;8.726;2023-07-24T13:02:57;4.73;;;4.33;;
2225;SDS011;1119;48.288;8.726;2023-07-24T13:05:24;5.20;;;4.90;;
2225;SDS011;1119;48.288;8.726;2023-07-24T13:07:51;5.83;;;5.43;;
2225;SDS011;1119;48.288;8.726;2023-07-24T13:10:19;5.87;;;4.40;;
2225;SDS011;1119;48.288;8.726;2023-07-24T13:12:46;4.80;;;4.50;;
2225;SDS011;1119;48.288;8.726;2023-07-24T13:15:14;5.50;;;5.03;;
2225;SDS011;1119;48.288;8.726;2023-07-24T13:17:43;5.27;;;4.83;;
2225;SDS011;1119;48.288;8.726;2023-07-24T13:20:10;4.70;;;4.40;;
2225;SDS011;1119;48.288;8.726;2023-07-24T13:22:38;5.13;;;4.80;;
2225;SDS011;1119;48.288;8.726;2023-07-24T13:25:06;5.17;;;4.87;;
2225;SDS011;1119;48.288;8.726;2023-07-24T13:27:34;5.50;;;5.10;;
2225;SDS011;1119;48.288;8.726;2023-07-24T13:30:01;5.03;;;4.67;;
2225;SDS011;1119;48.288;8.726;2023-07-24T13:32:30;5.73;;;5.27;;
2225;SDS011;1119;48.288;8.726;2023-07-24T13:34:59;6.10;;;5.70;;
2225;SDS011;1119;48.288;8.726;2023-07-24T13:37:26;5.20;;;4.80;;
2225;SDS011;1119;48.288;8.726;2023-07-24T13:39:54;7.27;;;6.67;;
2225;SDS011;1119;48.288;8.726;2023-07-24T13:42:21;4.83;;;4.50;;
2225;SDS011;1119;48.288;8.726;2023-07-24T13:44:48;6.20;;;5.70;;
2225;SDS011;1119;48.288;8.726;2023-07-24T13:47:16;6.13;;;5.40;;
2225;SDS011;1119;48.288;8.726;2023-07-24T13:49:43;5.40;;;5.00;;
2225;SDS011;1119;48.288;8.726;2023-07-24T13:52:12;5.17;;;4.77;;
2225;SDS011;1119;48.288;8.726;2023-07-24T13:54:39;6.27;;;5.63;;
2225;SDS011;1119;48.288;8.726;2023-07-24T13:57:06;5.93;;;5.40;;
2225;SDS011;1119;48.288;8.726;2023-07-24T13:59:34;8.20;;;6.30;;
2225;SDS011;1119;48.288;8.726;2023-07-24T14:02:03;5.77;;;5.37;;
2225;SDS011;1119;48.288;8.726;2023-07-24T14:04:31;6.00;;;5.60;;
2225;SDS011;1119;48.288;8.726;2023-07-24T14:06:58;5.40;;;5.10;;
2225;SDS011;1119;48.288;8.726;2023-07-24T14:13:52;5.83;;;5.23;;
2225;SDS011;1119;48.288;8.726;2023-07-24T14:20:51;6.33;;;5.90;;
2225;SDS011;1119;48.288;8.726;2023-07-24T14:23:21;5.93;;;5.47;;
2225;SDS011;1119;48.288;8.726;2023-07-24T14:25:48;11.93;;;5.70;;
2225;SDS011;1119;48.288;8.726;2023-07-24T14:28:15;6.37;;;5.73;;
2225;SDS011;1119;48.288;8.726;2023-07-24T14:30:44;5.87;;;5.47;;
2225;SDS011;1119;48.288;8.726;2023-07-24T14:33:11;6.17;;;5.50;;
2225;SDS011;1119;48.288;8.726;2023-07-24T14:35:39;6.37;;;5.87;;
2225;SDS011;1119;48.288;8.726;2023-07-24T14:38:06;5.87;;;5.33;;
2225;SDS011;1119;48.288;8.726;2023-07-24T14:40:33;4.77;;;4.37;;
2225;SDS011;1119;48.288;8.726;2023-07-24T14:43:01;5.93;;;5.47;;
2225;SDS011;1119;48.288;8.726;2023-07-24T14:45:28;5.37;;;5.07;;
2225;SDS011;1119;48.288;8.726;2023-07-24T14:47:58;8.13;;;5.50;;
2225;SDS011;1119;48.288;8.726;2023-07-24T14:50:25;5.40;;;5.00;;
2225;SDS011;1119;48.288;8.726;2023-07-24T14:52:52;5.30;;;5.00;;
2225;SDS011;1119;48.288;8.726;2023-07-24T14:55:20;5.93;;;5.43;;
2225;SDS011;1119;48.288;8.726;2023-07-24T14:57:47;5.20;;;4.80;;
2225;SDS011;1119;48.288;8.726;2023-07-24T15:00:15;6.40;;;5.90;;
2225;SDS011;1119;48.288;8.726;2023-07-24T15:02:43;6.77;;;6.17;;
2225;SDS011;1119;48.288;8.726;2023-07-24T15:05:12;5.77;;;5.37;;
2225;SDS011;1119;48.288;8.726;2023-07-24T15:07:39;4.87;;;4.50;;
2225;SDS011;1119;48.288;8.726;2023-07-24T15:14:38;4.93;;;4.53;;
2225;SDS011;1119;48.288;8.726;2023-07-24T15:17:05;5.60;;;5.20;;
2225;SDS011;1119;48.288;8.726;2023-07-24T15:19:33;5.50;;;5.00;;
2225;SDS011;1119;48.288;8.726;2023-07-24T15:22:01;6.07;;;5.57;;
2225;SDS011;1119;48.288;8.726;2023-07-24T15:24:29;5.47;;;5.00;;
2225;SDS011;1119;48.288;8.726;2023-07-24T15:26:56;4.67;;;4.37;;
2225;SDS011;1119;48.288;8.726;2023-07-24T15:29:23;5.57;;;5.07;;